Data for 06/25/2015

Time Sea-Level Adjusted Pressure Absolute Pressure Temperature Relative Humidity Dew Point   
(mb) (inHg) (mb) (inHg) (C) (F) (%) (C) (F)
00:05 1022 30.18 851 25.13 18.3 65 59 10.4 50.7
00:10 1022 30.18 851 25.13 18.3 64.9 60 10.4 50.8
00:15 1022 30.18 851 25.13 18.1 64.6 60 10.3 50.5
00:20 1022 30.18 851 25.13 18 64.4 60 10.3 50.5
00:25 1022 30.18 851 25.13 18 64.3 60 10.1 50.1
00:30 1022 30.18 851 25.13 17.9 64.2 59 10 50
00:35 1022 30.18 851 25.13 17.8 64.1 60 10.1 50.1
00:40 1022 30.18 851 25.13 17.7 63.8 61 10.3 50.5
00:45 1022 30.18 851 25.13 17.5 63.5 62 10.2 50.3
00:50 1022 30.18 851 25.13 17.6 63.6 61 10 50.1
00:55 1022 30.18 851 25.13 17.7 63.8 61 10 50.1
01:00 1022 30.18 851 25.13 17.7 63.8 60 10 50
01:05 1022 30.18 851 25.13 17.8 64 60 9.9 49.9
01:10 1022 30.18 851 25.13 17.8 64.1 60 10 50.1
01:15 1022 30.18 851 25.13 17.7 63.9 61 10.3 50.5
01:20 1022 30.18 851 25.13 17.5 63.5 63 10.3 50.6
01:25 1022 30.18 851 25.13 17.3 63.1 63 10.3 50.6
01:30 1022 30.18 851 25.13 17.2 63 63 10.2 50.4
01:35 1022 30.18 851 25.13 17.3 63.1 62 10 50
01:40 1021 30.15 851 25.13 17.5 63.5 61 9.9 49.8
01:45 1021 30.15 851 25.13 17.7 63.8 60 9.9 49.9
01:50 1021 30.15 851 25.13 17.8 64 60 10 50
01:55 1021 30.15 851 25.13 17.8 64 60 10 50
02:00 1021 30.15 850 25.1 17.8 64 60 10 50.1
02:05 1021 30.15 850 25.1 17.7 63.9 61 10.1 50.2
02:10 1021 30.15 850 25.1 17.7 63.8 61 10.1 50.2
02:15 1021 30.15 850 25.1 17.6 63.6 61 10.1 50.2
02:20 1021 30.15 851 25.13 17.5 63.6 62 10.1 50.3
02:25 1021 30.15 851 25.13 17.5 63.5 61 10.1 50.1
02:30 1021 30.15 851 25.13 17.5 63.6 61 10.1 50.2
02:35 1021 30.15 850 25.1 17.6 63.6 61 10 49.9
02:40 1021 30.15 850 25.1 17.7 63.9 61 10.1 50.2
02:45 1021 30.15 851 25.13 17.6 63.6 62 10.2 50.4
02:50 1021 30.15 851 25.13 17.5 63.4 61 10.1 50.1
02:55 1021 30.15 851 25.13 17.6 63.6 61 10.1 50.1
03:00 1022 30.18 851 25.13 17.6 63.6 62 10.2 50.4
03:05 1022 30.18 851 25.13 17.5 63.4 62 10.2 50.3
03:10 1021 30.15 851 25.13 17.4 63.3 62 10.1 50.3
03:15 1021 30.15 851 25.13 17.3 63.2 62 10.1 50.2
03:20 1022 30.18 851 25.13 17.3 63.1 62 10.1 50.2
03:25 1022 30.18 851 25.13 17.3 63.1 62 10.1 50.2
03:30 1022 30.18 851 25.13 17.3 63.2 62 10.1 50.1
03:35 1022 30.18 851 25.13 17.3 63.2 62 10 50.1
03:40 1022 30.18 851 25.13 17.3 63.2 62 10.1 50.2
03:45 1022 30.18 851 25.13 17.4 63.2 62 10 50
03:50 1022 30.18 851 25.13 17.4 63.3 61 10 50
03:55 1022 30.18 851 25.13 17.4 63.2 62 10 50
04:00 1022 30.18 851 25.13 17.3 63.1 62 10 50
04:05 1022 30.18 851 25.13 17.2 62.9 62 10 49.9
04:10 1022 30.18 851 25.13 17.1 62.8 62 9.8 49.7
04:15 1022 30.18 852 25.16 17.2 62.9 60 9.5 49.1
04:20 1022 30.18 852 25.16 17.2 62.9 59 9.2 48.6
04:25 1022 30.18 852 25.16 17.1 62.7 59 9.2 48.5
04:30 1023 30.21 852 25.16 16.9 62.4 60 9.2 48.5
04:35 1023 30.21 852 25.16 16.7 62.1 60 9 48.1
04:40 1023 30.21 852 25.16 16.6 61.9 61 9 48.2
04:45 1023 30.21 852 25.16 16.6 61.8 62 9.3 48.7
04:50 1023 30.21 852 25.16 16.6 61.8 62 9.4 48.9
04:55 1023 30.21 852 25.16 16.5 61.7 62 9.4 48.9
05:00 1023 30.21 852 25.16 16.5 61.6 63 9.4 49
05:05 1023 30.21 852 25.16 16.1 60.9 65 9.7 49.4
05:10 1023 30.21 852 25.16 15.3 59.6 70 9.9 49.8
05:15 1023 30.21 852 25.16 14.9 58.8 71 9.8 49.6
05:20 1023 30.21 852 25.16 14.7 58.5 72 9.7 49.5
05:25 1023 30.21 852 25.16 14.6 58.3 71 9.5 49.2
05:30 1023 30.21 852 25.16 14.7 58.5 76 10.6 51.1
05:35 1023 30.21 852 25.16 14.8 58.6 71 9.5 49.2
05:40 1023 30.21 852 25.16 14.6 58.3 70 9.3 48.7
05:45 1023 30.21 852 25.16 14.6 58.3 70 9.2 48.6
05:50 1023 30.21 852 25.16 14.5 58.1 70 9.2 48.5
05:55 1023 30.21 853 25.19 14.2 57.5 73 9.5 49.1
06:00 1023 30.21 853 25.19 13.7 56.6 76 9.5 49
06:05 1023 30.21 853 25.19 13.5 56.3 74 9 48.2
06:10 1023 30.21 853 25.19 13.7 56.7 74 9.1 48.4
06:15 1023 30.21 853 25.19 13.9 57.1 72 9 48.3
06:20 1023 30.21 853 25.19 14.2 57.5 71 9.1 48.4
06:25 1023 30.21 853 25.19 14.4 58 70 9.1 48.4
06:30 1024 30.24 853 25.19 14.8 58.6 70 9.4 49
06:35 1024 30.24 853 25.19 15 59.1 69 9.5 49.1
06:40 1024 30.24 853 25.19 15.4 59.7 68 9.5 49.1
06:45 1024 30.24 853 25.19 16.1 60.9 65 9.6 49.2
06:50 1024 30.24 853 25.19 16.4 61.6 65 9.8 49.7
06:55 1024 30.24 853 25.19 16.9 62.3 63 9.9 49.9
07:00 1024 30.24 853 25.19 17.2 63 63 10.1 50.2
07:05 1024 30.24 853 25.19 17.7 63.9 60 9.9 49.8
07:10 1024 30.24 853 25.19 18.4 65.1 58 10.2 50.3
07:15 1024 30.24 853 25.19 18.7 65.7 58 10.4 50.7
07:20 1024 30.24 853 25.19 19.1 66.3 56 10.1 50.2
07:25 1024 30.24 853 25.19 19.4 67 54 10.1 50.2
07:30 1024 30.24 853 25.19 20 68 51 9.8 49.6
07:35 1024 30.24 853 25.19 20.7 69.2 48 9.5 49.2
07:40 1024 30.24 853 25.19 21 69.8 46 9 48.2
07:45 1024 30.24 853 25.19 21 69.7 43 8.2 46.8
07:50 1024 30.24 853 25.19 21.1 70 45 8.7 47.7
07:55 1024 30.24 853 25.19 21.6 70.8 41 7.8 46
08:00 1024 30.24 853 25.19 22.1 71.9 39 7.6 45.6
08:05 1024 30.24 853 25.19 21.6 70.9 38 7 44.5
08:10 1024 30.24 853 25.19 21.9 71.4 35 6.1 43
08:15 1024 30.24 853 25.19 22.3 72.1 34 6.1 42.9
08:20 1024 30.24 853 25.19 23 73.4 33 6.2 43.2
08:25 1024 30.24 853 25.19 23 73.5 33 6.3 43.4
08:30 1024 30.24 853 25.19 22.9 73.3 34 6.2 43.2
08:35 1024 30.24 853 25.19 23 73.4 34 6.5 43.7
08:40 1024 30.24 853 25.19 23.4 74 32 6.2 43.1
08:45 1024 30.24 853 25.19 23.5 74.3 33 6.4 43.5
08:50 1024 30.24 853 25.19 22.5 72.5 34 6 42.9
08:55 1024 30.24 853 25.19 22.7 72.9 33 5.8 42.4
09:00 1024 30.24 853 25.19 22.6 72.8 34 6.3 43.3
09:05 1024 30.24 853 25.19 22.1 71.7 36 6.4 43.6
09:10 1024 30.24 853 25.19 23 73.4 35 7.1 44.8
09:15 1024 30.24 853 25.19 22.8 73.1 35 6.8 44.2
09:20 1024 30.24 853 25.19 23.4 74.2 32 5.9 42.7
09:25 1024 30.24 853 25.19 23.8 74.8 31 6 42.8
09:30 1024 30.24 853 25.19 22.7 72.9 34 6.2 43.2
09:35 1024 30.24 853 25.19 23 73.4 32 5.6 42
09:40 1024 30.24 853 25.19 23.8 74.8 32 6.5 43.7
09:45 1024 30.24 853 25.19 23.2 73.7 32 5.8 42.4
09:50 1024 30.24 853 25.19 23.6 74.5 32 6.3 43.3
09:55 1024 30.24 853 25.19 22.8 73.1 33 5.8 42.4
10:00 1024 30.24 853 25.19 23.6 74.6 31 5.6 42
10:05 1024 30.24 853 25.19 23.8 74.8 31 5.7 42.3
10:10 1024 30.24 853 25.19 23.2 73.7 31 5.3 41.6
10:15 1024 30.24 853 25.19 24.7 76.5 27 4.7 40.4
10:20 1024 30.24 853 25.19 25.1 77.2 26 4.5 40.1
10:25 1024 30.24 853 25.19 25.3 77.5 26 4.5 40.1
10:30 1024 30.24 853 25.19 25 77 26 4.4 40
10:35 1024 30.24 853 25.19 24.9 76.9 25 4.1 39.3
10:40 1024 30.24 853 25.19 25.5 77.8 21 2.1 35.7
10:45 1024 30.24 853 25.19 25.3 77.6 23 3.2 37.7
10:50 1024 30.24 853 25.19 24.8 76.7 23 2.8 37
10:55 1024 30.24 853 25.19 25.3 77.6 23 2.9 37.2
11:00 1024 30.24 853 25.19 25.5 77.9 22 2.4 36.3
11:05 1024 30.24 853 25.19 25.6 78.1 21 2 35.7
11:10 1024 30.24 853 25.19 25.7 78.3 21 2 35.6
11:15 1024 30.24 853 25.19 25.1 77.2 22 2.3 36.2
11:20 1024 30.24 853 25.19 25.4 77.8 23 3.3 37.9
11:25 1024 30.24 853 25.19 24.5 76 25 3.2 37.7
11:30 1024 30.24 853 25.19 25.8 78.4 23 3.5 38.2
11:35 1024 30.24 853 25.19 25.9 78.7 24 3.9 39
11:40 1024 30.24 853 25.19 25.5 78 24 3.7 38.7
11:45 1024 30.24 853 25.19 26.2 79.2 23 3.7 38.7
11:50 1024 30.24 853 25.19 26.7 80 23 4 39.3
11:55 1024 30.24 853 25.19 25.2 77.4 25 3.8 38.8
12:00 1024 30.24 853 25.19 26.8 80.2 20 2.2 35.9
12:05 1024 30.24 853 25.19 26.5 79.7 22 3.5 38.3
12:10 1024 30.24 853 25.19 26.8 80.2 22 3.5 38.2
12:15 1024 30.24 853 25.19 26.8 80.3 20 2.1 35.8
12:20 1024 30.24 853 25.19 26.9 80.5 20 2.5 36.5
12:25 1024 30.24 853 25.19 26.9 80.4 18 0.9 33.6
12:30 1024 30.24 853 25.19 26.6 79.8 18 0.8 33.4
12:35 1024 30.24 853 25.19 27 80.7 18 1 33.7
12:40 1024 30.24 853 25.19 26.7 80 19 1.3 34.4
12:45 1024 30.24 853 25.19 26.1 78.9 20 2 35.5
12:50 1024 30.24 853 25.19 26.3 79.4 19 1.2 34.1
12:55 1024 30.24 853 25.19 26.4 79.4 21 2.5 36.5
13:00 1024 30.24 853 25.19 26.9 80.4 19 1.7 35
13:05 1024 30.24 853 25.19 27.3 81.2 19 1.9 35.4
13:10 1024 30.24 853 25.19 26.8 80.3 20 2.3 36.1
13:15 1024 30.24 853 25.19 26.8 80.2 19 1.5 34.7
13:20 1024 30.24 853 25.19 27.1 80.7 19 1.7 35.1
13:25 1024 30.24 853 25.19 27.1 80.7 20 2.6 36.6
13:30 1024 30.24 853 25.19 26.6 79.9 20 1.9 35.3
13:35 1024 30.24 853 25.19 27.6 81.6 19 2.1 35.9
13:40 1024 30.24 853 25.19 27.4 81.2 20 2.7 36.9
13:45 1024 30.24 853 25.19 27.1 80.8 21 2.9 37.2
13:50 1024 30.24 853 25.19 27.2 81 21 3.2 37.8
13:55 1024 30.24 853 25.19 27.2 80.9 20 2.9 37.3
14:00 1024 30.24 853 25.19 27.3 81.1 20 2.6 36.6
14:05 1024 30.24 853 25.19 27.5 81.4 20 2.5 36.5
14:10 1024 30.24 853 25.19 28.1 82.5 19 2.5 36.6
14:15 1024 30.24 853 25.19 28.3 82.9 19 2.4 36.4
14:20 1024 30.24 853 25.19 27.9 82.2 19 2.8 37
14:25 1024 30.24 853 25.19 28.1 82.5 20 3 37.4
14:30 1023 30.21 853 25.19 27.9 82.2 19 2.7 36.8
14:35 1024 30.24 853 25.19 27.4 81.3 19 2.2 35.9
14:40 1024 30.24 853 25.19 27.8 82 19 2.5 36.5
14:45 1023 30.21 853 25.19 27.7 81.8 20 2.6 36.7
14:50 1023 30.21 853 25.19 27.9 82.3 20 3 37.4
14:55 1023 30.21 853 25.19 27.7 81.8 19 2.4 36.4
15:00 1023 30.21 853 25.19 27.6 81.7 19 2 35.6
15:05 1023 30.21 853 25.19 27.7 81.9 19 2 35.6
15:10 1023 30.21 853 25.19 27.9 82.3 19 2.5 36.6
15:15 1023 30.21 853 25.19 28.3 83 19 3.2 37.7
15:20 1023 30.21 853 25.19 28 82.4 18 2 35.5
15:25 1023 30.21 853 25.19 27.9 82.3 18 1.9 35.4
15:30 1023 30.21 853 25.19 28.3 82.9 18 2.1 35.8
15:35 1023 30.21 853 25.19 27.9 82.2 19 2.5 36.5
15:40 1023 30.21 853 25.19 28.1 82.5 19 2.8 37
15:45 1023 30.21 853 25.19 28 82.4 18 1.9 35.5
15:50 1023 30.21 853 25.19 28.5 83.3 17 1.5 34.8
15:55 1023 30.21 853 25.19 28.8 83.9 18 2.7 36.8
16:00 1023 30.21 853 25.19 28.4 83.1 19 2.5 36.5
16:05 1023 30.21 853 25.19 28.3 82.9 19 3 37.4
16:10 1023 30.21 853 25.19 28 82.4 19 2.3 36.1
16:15 1023 30.21 853 25.19 28.1 82.5 18 1.9 35.5
16:20 1023 30.21 853 25.19 28.1 82.6 18 1.6 35
16:25 1023 30.21 853 25.19 28.1 82.6 18 2 35.7
16:30 1023 30.21 853 25.19 28.2 82.8 19 2.5 36.6
16:35 1023 30.21 853 25.19 28.6 83.4 18 2.3 36.2
16:40 1023 30.21 853 25.19 28.7 83.7 18 2.7 36.8
16:45 1023 30.21 853 25.19 28.1 82.5 19 2.4 36.4
16:50 1023 30.21 853 25.19 27.8 82.1 18 2 35.5
16:55 1023 30.21 853 25.19 27.9 82.3 17 1.3 34.4
17:00 1023 30.21 852 25.16 28 82.5 18 1.9 35.3
17:05 1023 30.21 852 25.16 28.3 83 18 2 35.6
17:10 1023 30.21 852 25.16 28 82.4 18 1.7 35.1
17:15 1023 30.21 852 25.16 28.1 82.7 18 2.2 36
17:20 1023 30.21 852 25.16 28 82.3 18 2.1 35.8
17:25 1023 30.21 852 25.16 27.9 82.3 18 2 35.5
17:30 1023 30.21 852 25.16 27.8 82.1 19 2.2 36
17:35 1023 30.21 852 25.16 27.7 81.9 19 2 35.5
17:40 1023 30.21 852 25.16 27.6 81.6 19 2.5 36.5
17:45 1023 30.21 852 25.16 27.2 80.9 20 2.6 36.6
17:50 1023 30.21 852 25.16 27.3 81.1 19 1.6 34.9
17:55 1023 30.21 852 25.16 26.8 80.2 19 1.8 35.3
18:00 1023 30.21 852 25.16 27.4 81.2 19 1.9 35.4
18:05 1023 30.21 852 25.16 27.7 81.8 18 1.9 35.4
18:10 1023 30.21 852 25.16 27.2 81 20 2.4 36.3
18:15 1023 30.21 852 25.16 26.6 79.9 20 2.2 35.9
18:20 1023 30.21 852 25.16 26.4 79.6 21 2.3 36.2
18:25 1023 30.21 853 25.19 26.5 79.6 20 2.2 36
18:30 1023 30.21 853 25.19 26.5 79.7 21 2.5 36.5
18:35 1023 30.21 853 25.19 26.4 79.5 21 2.8 37.1
18:40 1023 30.21 853 25.19 26 78.7 21 2.1 35.7
18:45 1023 30.21 853 25.19 25.8 78.4 21 2.1 35.8
18:50 1023 30.21 853 25.19 25.7 78.3 21 2.3 36.1
18:55 1023 30.21 853 25.19 25.7 78.3 22 2.6 36.7
19:00 1023 30.21 853 25.19 25.8 78.4 22 2.4 36.4
19:05 1023 30.21 853 25.19 25.7 78.3 21 2.4 36.2
19:10 1023 30.21 853 25.19 25.5 77.9 22 2.2 35.9
19:15 1024 30.24 853 25.19 25.5 77.8 22 2.2 35.9
19:20 1024 30.24 853 25.19 25.4 77.8 22 2.5 36.6
19:25 1024 30.24 853 25.19 25.3 77.6 22 2.6 36.7
19:30 1024 30.24 853 25.19 25.2 77.4 22 2.3 36.1
19:35 1024 30.24 853 25.19 25.2 77.4 23 3 37.4
19:40 1024 30.24 853 25.19 25.2 77.3 23 2.6 36.6
19:45 1024 30.24 853 25.19 25.1 77.1 23 2.7 36.8
19:50 1024 30.24 853 25.19 25 77.1 23 2.6 36.7
19:55 1024 30.24 853 25.19 25 77 23 2.7 36.8
20:00 1024 30.24 853 25.19 25 77 23 2.9 37.2
20:05 1024 30.24 853 25.19 24.8 76.7 24 3.1 37.6
20:10 1024 30.24 853 25.19 24.7 76.4 25 3.3 37.9
20:15 1024 30.24 853 25.19 24.5 76 25 3.4 38.2
20:20 1024 30.24 853 25.19 24.4 75.8 25 3.5 38.2
20:25 1024 30.24 853 25.19 24.1 75.5 31 6.3 43.3
20:30 1024 30.24 853 25.19 23 73.4 38 8.1 46.6
20:35 1024 30.24 853 25.19 21.9 71.4 44 9.3 48.8
20:40 1024 30.24 853 25.19 21.6 70.9 38 7 44.5
20:45 1024 30.24 853 25.19 21.4 70.6 42 8.3 46.9
20:50 1024 30.24 853 25.19 21.1 69.9 39 6.8 44.2
20:55 1024 30.24 853 25.19 20.8 69.4 40 6.8 44.2
21:00 1024 30.24 853 25.19 20.5 69 39 6.1 43
21:05 1024 30.24 853 25.19 20.4 68.7 44 7.7 45.9
21:10 1024 30.24 853 25.19 20.2 68.3 44 7.7 45.9
21:15 1024 30.24 853 25.19 20 67.9 47 8.6 47.5
21:20 1024 30.24 853 25.19 19.6 67.3 37 4.9 40.7
21:25 1024 30.24 853 25.19 19.4 66.9 39 5.4 41.7
21:30 1024 30.24 854 25.22 19.5 67 39 5.2 41.3
21:35 1024 30.24 854 25.22 19.1 66.4 42 5.9 42.5
21:40 1024 30.24 854 25.22 18.7 65.6 42 5.8 42.4
21:45 1025 30.27 854 25.22 18.5 65.4 42 5.6 42.1
21:50 1024 30.24 854 25.22 18.8 65.9 44 6.4 43.5
21:55 1025 30.27 854 25.22 19.4 66.8 45 7.3 45.1
22:00 1025 30.27 854 25.22 19.8 67.6 45 7.8 46
22:05 1025 30.27 854 25.22 20 68 46 8.3 46.9
22:10 1025 30.27 854 25.22 19.9 67.8 48 8.6 47.5
22:15 1025 30.27 854 25.22 19.7 67.4 49 8.7 47.6
22:20 1025 30.27 854 25.22 19.5 67.1 49 8.6 47.5
22:25 1025 30.27 854 25.22 19.5 67.1 49 8.6 47.6
22:30 1025 30.27 854 25.22 19.6 67.2 49 8.7 47.6
22:35 1025 30.27 854 25.22 19.5 67.1 50 8.8 47.9
22:40 1025 30.27 854 25.22 19.6 67.2 50 9 48.2
22:45 1024 30.24 854 25.22 19.7 67.4 49 8.9 48.1
22:50 1024 30.24 854 25.22 19.8 67.6 50 9.1 48.3
22:55 1024 30.24 854 25.22 19.8 67.6 50 9.1 48.3
23:00 1024 30.24 854 25.22 19.7 67.5 50 9.2 48.6
23:05 1024 30.24 854 25.22 19.8 67.6 50 9.1 48.4
23:10 1024 30.24 854 25.22 20 67.9 49 9.2 48.5
23:15 1025 30.27 854 25.22 20 68.1 49 9.2 48.6
23:20 1024 30.24 854 25.22 20.1 68.1 49 9.3 48.7
23:25 1024 30.24 854 25.22 20 68 49 9.2 48.6
23:30 1024 30.24 854 25.22 19.9 67.7 50 9.2 48.5
23:35 1024 30.24 854 25.22 19.5 67.1 51 9.1 48.4
23:40 1024 30.24 854 25.22 19.3 66.8 50 8.7 47.7
23:45 1024 30.24 854 25.22 19.2 66.5 50 8.7 47.6
23:50 1024 30.24 854 25.22 18.9 66 50 8.4 47.2
23:55 1024 30.24 854 25.22 18.7 65.7 51 8.4 47.2
24:00 1024 30.24 854 25.22 18.4 65.1 52 8.4 47.1